createdAt,value
2018-05-26T00:02:22.269Z,39.83
2018-05-26T00:04:49.785Z,39.37
2018-05-26T00:07:18.093Z,40.30
2018-05-26T00:09:45.682Z,40.50
2018-05-26T00:12:13.203Z,40.60
2018-05-26T00:14:40.804Z,41.47
2018-05-26T00:17:08.720Z,40.53
2018-05-26T00:19:36.243Z,39.90
2018-05-26T00:22:03.786Z,40.03
2018-05-26T00:24:31.329Z,40.83
2018-05-26T00:26:58.860Z,40.67
2018-05-26T00:29:26.726Z,39.80
2018-05-26T00:31:54.247Z,41.57
2018-05-26T00:34:21.740Z,41.10
2018-05-26T00:36:49.262Z,42.10
2018-05-26T00:39:17.564Z,44.03
2018-05-26T00:41:45.083Z,42.47
2018-05-26T00:44:12.621Z,42.20
2018-05-26T00:46:40.143Z,43.13
2018-05-26T00:49:07.678Z,44.00
2018-05-26T00:51:35.942Z,43.90
2018-05-26T00:54:03.462Z,44.63
2018-05-26T00:56:30.973Z,42.70
2018-05-26T00:58:58.789Z,43.00
2018-05-26T01:01:26.303Z,42.67
2018-05-26T01:03:54.691Z,43.20
2018-05-26T01:06:22.565Z,44.00
2018-05-26T01:08:50.109Z,42.90
2018-05-26T01:11:18.484Z,42.00
2018-05-26T01:13:46.238Z,44.13
2018-05-26T01:16:14.590Z,43.97
2018-05-26T01:18:43.043Z,43.87
2018-05-26T01:21:10.586Z,44.17
2018-05-26T01:23:38.123Z,42.03
2018-05-26T01:26:05.666Z,44.00
2018-05-26T01:28:33.595Z,43.00
2018-05-26T01:31:01.115Z,44.93
2018-05-26T01:33:29.380Z,45.37
2018-05-26T01:35:56.970Z,47.03
2018-05-26T01:38:24.504Z,45.77
2018-05-26T01:40:52.774Z,43.60
2018-05-26T01:43:21.049Z,46.10
2018-05-26T01:45:48.807Z,44.00
2018-05-26T01:48:17.085Z,44.30
2018-05-26T01:50:45.502Z,45.20
2018-05-26T01:53:13.629Z,45.40
2018-05-26T01:55:41.948Z,46.70
2018-05-26T01:58:09.729Z,45.47
2018-05-26T02:00:38.044Z,45.83
2018-05-26T02:03:05.547Z,45.77
2018-05-26T02:05:33.086Z,45.17
2018-05-26T02:08:00.682Z,46.60
2018-05-26T02:10:28.214Z,43.07
2018-05-26T02:12:56.167Z,45.30
2018-05-26T02:15:23.678Z,45.07
2018-05-26T02:17:52.024Z,44.80
2018-05-26T02:20:19.599Z,48.00
2018-05-26T02:22:47.514Z,47.70
2018-05-26T02:25:15.823Z,47.77
2018-05-26T02:27:43.668Z,47.07
2018-05-26T02:30:11.930Z,47.90
2018-05-26T02:32:39.441Z,47.53
2018-05-26T02:35:06.968Z,49.40
2018-05-26T02:37:34.491Z,48.30
2018-05-26T02:40:02.408Z,48.47
2018-05-26T02:42:29.916Z,50.00
2018-05-26T02:44:57.537Z,50.80
2018-05-26T02:47:25.057Z,49.33
2018-05-26T02:49:52.584Z,48.57
2018-05-26T02:52:20.538Z,50.43
2018-05-26T02:54:48.054Z,50.47
2018-05-26T02:57:15.793Z,49.10
2018-05-26T02:59:44.658Z,48.27
2018-05-26T03:02:12.166Z,48.83
2018-05-26T03:04:45.808Z,50.17
2018-05-26T03:07:19.153Z,49.83
2018-05-26T03:09:52.725Z,49.80
2018-05-26T03:12:25.827Z,49.10
2018-05-26T03:14:53.613Z,50.50
2018-05-26T03:30:44.967Z,48.47
2018-05-26T03:33:13.275Z,49.67
2018-05-26T03:35:41.563Z,48.50
2018-05-26T03:38:09.335Z,47.47
2018-05-26T03:40:37.252Z,49.30
2018-05-26T03:43:05.171Z,49.20
2018-05-26T03:45:32.711Z,47.30
2018-05-26T03:48:00.236Z,46.90
2018-05-26T03:50:27.761Z,49.23
2018-05-26T03:52:55.315Z,47.60
2018-05-26T03:55:35.432Z,47.33
2018-05-26T03:58:15.018Z,46.47
2018-05-26T04:00:42.527Z,45.30
2018-05-26T04:03:10.447Z,47.10
2018-05-26T04:05:38.284Z,45.57
2018-05-26T04:08:05.796Z,45.90
2018-05-26T04:10:33.299Z,45.47
2018-05-26T04:13:00.830Z,44.90
2018-05-26T04:15:28.450Z,43.93
2018-05-26T04:17:56.377Z,42.90
2018-05-26T04:20:24.279Z,44.97
2018-05-26T04:22:51.795Z,45.40
2018-05-26T04:25:19.784Z,45.97
2018-05-26T04:27:47.391Z,45.63
2018-05-26T04:30:15.311Z,44.43
2018-05-26T04:32:42.826Z,45.30
2018-05-26T04:35:11.119Z,45.77
2018-05-26T04:37:39.409Z,44.10
2018-05-26T04:40:07.019Z,44.00
2018-05-26T04:42:34.859Z,44.10
2018-05-26T04:45:02.754Z,42.60
2018-05-26T04:47:30.263Z,44.23
2018-05-26T04:49:58.539Z,43.30
2018-05-26T04:52:26.576Z,42.63
2018-05-26T04:54:54.940Z,42.07
2018-05-26T04:57:22.474Z,41.67
2018-05-26T04:59:49.974Z,40.80
2018-05-26T05:02:18.251Z,39.30
2018-05-26T05:04:46.265Z,40.03
2018-05-26T05:07:13.763Z,38.80
2018-05-26T05:09:41.659Z,39.13
2018-05-26T05:12:09.196Z,36.57
2018-05-26T05:14:37.231Z,35.70
2018-05-26T05:17:04.917Z,34.20
2018-05-26T05:19:33.544Z,33.93
2018-05-26T05:22:01.086Z,33.17
2018-05-26T05:24:28.999Z,33.87
2018-05-26T05:26:56.867Z,33.17
2018-05-26T05:29:24.370Z,32.67
2018-05-26T05:31:52.722Z,33.40
2018-05-26T05:34:20.671Z,31.93
2018-05-26T05:36:48.178Z,33.00
2018-05-26T05:39:16.454Z,33.00
2018-05-26T05:41:44.007Z,33.87
2018-05-26T05:44:11.922Z,34.07
2018-05-26T05:46:39.427Z,33.47
2018-05-26T05:49:07.849Z,33.30
2018-05-26T05:51:35.346Z,32.90
2018-05-26T05:54:02.875Z,34.93
2018-05-26T05:56:30.429Z,33.40
2018-05-26T05:58:57.999Z,34.10
2018-05-26T06:01:25.519Z,34.50
2018-05-26T06:03:53.036Z,34.57
2018-05-26T06:06:20.585Z,32.20
2018-05-26T06:08:48.108Z,34.80
2018-05-26T06:11:15.644Z,32.20
2018-05-26T06:13:43.163Z,35.40
2018-05-26T06:16:11.466Z,32.60
2018-05-26T06:18:40.014Z,33.13
2018-05-26T06:21:07.504Z,33.00
2018-05-26T06:23:35.780Z,32.70
2018-05-26T06:26:03.668Z,33.10
2018-05-26T06:28:31.260Z,31.97
2018-05-26T06:30:58.801Z,33.10
2018-05-26T06:33:27.048Z,33.23
2018-05-26T06:35:55.405Z,31.87
2018-05-26T06:38:23.089Z,31.33
2018-05-26T06:40:51.564Z,32.37
2018-05-26T06:43:19.044Z,31.03
2018-05-26T06:45:46.518Z,29.30
2018-05-26T06:48:14.009Z,28.00
2018-05-26T06:50:41.495Z,27.03
2018-05-26T06:53:09.769Z,27.53
2018-05-26T06:55:38.366Z,27.20
2018-05-26T06:58:06.614Z,27.10
2018-05-26T07:00:34.103Z,27.10
2018-05-26T07:03:01.594Z,26.47
2018-05-26T07:05:29.066Z,25.80
2018-05-26T07:07:59.299Z,27.30
2018-05-26T07:10:27.894Z,27.67
2018-05-26T07:12:56.147Z,26.20
2018-05-26T07:15:23.642Z,25.43
2018-05-26T07:17:52.315Z,23.73
2018-05-26T07:20:20.680Z,24.50
2018-05-26T07:22:48.154Z,24.47
2018-05-26T07:25:16.035Z,22.77
2018-05-26T07:27:43.559Z,22.17
2018-05-26T07:30:11.093Z,22.80
2018-05-26T07:32:38.899Z,21.90
2018-05-26T07:35:07.152Z,22.97
2018-05-26T07:37:35.063Z,21.53
2018-05-26T07:40:02.601Z,22.00
2018-05-26T07:42:31.016Z,22.07
2018-05-26T07:44:58.536Z,21.83
2018-05-26T07:47:26.814Z,21.67
2018-05-26T07:49:55.744Z,20.40
2018-05-26T07:52:23.606Z,20.60
2018-05-26T07:54:51.123Z,21.40
2018-05-26T07:57:19.478Z,21.50
2018-05-26T07:59:46.970Z,21.80
2018-05-26T08:02:15.364Z,22.50
2018-05-26T08:04:42.902Z,22.17
2018-05-26T08:07:11.432Z,20.87
2018-05-26T08:09:40.594Z,19.83
2018-05-26T08:12:08.083Z,20.30
2018-05-26T08:14:36.522Z,19.37
2018-05-26T08:17:04.049Z,20.50
2018-05-26T08:19:31.535Z,21.10
2018-05-26T08:21:59.794Z,19.53
2018-05-26T08:24:28.081Z,19.40
2018-05-26T08:26:55.625Z,17.93
2018-05-26T08:29:23.122Z,19.37
2018-05-26T08:31:50.673Z,16.70
2018-05-26T08:34:18.178Z,17.60
2018-05-26T08:36:45.674Z,18.77
2018-05-26T08:39:14.042Z,18.00
2018-05-26T08:41:42.320Z,18.10
2018-05-26T08:44:10.591Z,17.37
2018-05-26T08:46:38.195Z,18.83
2018-05-26T08:49:05.858Z,16.77
2018-05-26T08:51:33.379Z,17.10
2018-05-26T08:54:00.899Z,16.33
2018-05-26T08:56:28.419Z,15.07
2018-05-26T08:58:55.996Z,14.47
2018-05-26T09:04:27.330Z,15.70
2018-05-26T09:06:55.689Z,15.33
2018-05-26T09:09:24.002Z,14.73
2018-05-26T09:11:51.592Z,14.47
2018-05-26T09:14:19.165Z,13.20
2018-05-26T09:16:46.710Z,12.00
2018-05-26T09:19:14.251Z,12.50
2018-05-26T09:21:41.823Z,13.80
2018-05-26T09:26:43.707Z,13.53
2018-05-26T09:29:12.202Z,11.03
2018-05-26T09:31:39.689Z,9.70
2018-05-26T09:34:07.440Z,10.07
2018-05-26T09:36:36.063Z,10.87
2018-05-26T09:39:03.562Z,10.10
2018-05-26T09:41:31.131Z,9.30
2018-05-26T09:43:59.412Z,8.30
2018-05-26T09:46:27.717Z,9.53
2018-05-26T09:48:55.571Z,8.33
2018-05-26T09:51:23.092Z,9.67
2018-05-26T09:53:51.629Z,9.93
2018-05-26T09:56:19.141Z,9.37
2018-05-26T09:58:47.836Z,9.70
2018-05-26T10:01:16.297Z,10.00
2018-05-26T10:03:44.610Z,9.40
2018-05-26T10:06:12.146Z,10.37
2018-05-26T10:08:39.668Z,9.63
2018-05-26T10:11:07.192Z,10.30
2018-05-26T10:13:34.691Z,9.20
2018-05-26T10:16:02.211Z,9.00
2018-05-26T10:18:29.765Z,9.67
2018-05-26T10:20:57.251Z,10.30
2018-05-26T10:23:24.783Z,10.17
2018-05-26T10:25:52.315Z,10.17
2018-05-26T10:28:19.862Z,8.50
2018-05-26T10:30:48.212Z,9.40
2018-05-26T10:33:15.735Z,9.43
2018-05-26T10:35:43.244Z,8.57
2018-05-26T10:38:12.316Z,9.00
2018-05-26T10:40:39.964Z,10.73
2018-05-26T10:43:07.465Z,9.60
2018-05-26T10:45:39.502Z,9.40
2018-05-26T10:48:07.024Z,9.37
2018-05-26T10:50:34.544Z,10.13
2018-05-26T10:53:02.081Z,8.77
2018-05-26T10:55:30.430Z,9.00
2018-05-26T10:57:58.405Z,9.57
2018-05-26T11:00:25.946Z,10.30
2018-05-26T11:02:53.516Z,10.33
2018-05-26T11:05:21.248Z,10.20
2018-05-26T11:07:48.814Z,10.00
2018-05-26T11:10:16.369Z,9.00
2018-05-26T11:12:44.512Z,8.73
2018-05-26T11:15:12.743Z,13.17
2018-05-26T11:17:40.351Z,13.70
2018-05-26T11:20:08.637Z,15.67
2018-05-26T11:22:36.154Z,16.07
2018-05-26T11:25:04.512Z,13.90
2018-05-26T11:27:31.990Z,14.40
2018-05-26T11:29:59.932Z,14.93
2018-05-26T11:32:27.455Z,15.40
2018-05-26T11:34:55.049Z,17.80
2018-05-26T11:37:23.014Z,15.97
2018-05-26T11:39:51.211Z,15.53
2018-05-26T11:42:18.819Z,15.73
2018-05-26T11:44:46.337Z,17.23
2018-05-26T11:47:13.945Z,16.70
2018-05-26T11:49:41.446Z,15.40
2018-05-26T11:52:09.072Z,18.70
2018-05-26T11:54:36.720Z,15.50
2018-05-26T11:57:04.317Z,14.83
2018-05-26T11:59:31.838Z,15.30
2018-05-26T12:01:59.361Z,16.77
2018-05-26T12:04:26.850Z,15.30
2018-05-26T12:06:54.397Z,17.70
2018-05-26T12:09:22.672Z,15.87
2018-05-26T12:11:50.942Z,15.93
2018-05-26T12:14:19.208Z,14.90
2018-05-26T12:16:46.787Z,14.13
2018-05-26T12:19:14.311Z,13.70
2018-05-26T12:21:42.935Z,15.87
2018-05-26T12:24:10.452Z,17.03
2018-05-26T12:26:37.973Z,16.37
2018-05-26T12:29:05.506Z,17.17
2018-05-26T12:31:33.020Z,16.37
2018-05-26T12:34:00.563Z,13.87
2018-05-26T12:36:28.073Z,13.70
2018-05-26T12:38:56.333Z,15.20
2018-05-26T12:41:23.860Z,15.30
2018-05-26T12:43:51.368Z,14.77
2018-05-26T12:46:19.689Z,15.40
2018-05-26T12:48:47.185Z,16.30
2018-05-26T12:51:14.707Z,14.17
2018-05-26T12:53:42.215Z,15.80
2018-05-26T12:56:10.463Z,14.93
2018-05-26T12:58:37.971Z,14.67
2018-05-26T13:01:05.469Z,13.80
2018-05-26T13:03:32.973Z,13.60
2018-05-26T13:06:00.463Z,14.37
2018-05-26T13:08:27.968Z,13.60
2018-05-26T13:10:56.263Z,14.40
2018-05-26T13:13:23.806Z,12.37
2018-05-26T13:15:52.148Z,14.93
2018-05-26T13:18:19.639Z,13.77
2018-05-26T13:20:47.190Z,12.67
2018-05-26T13:23:15.486Z,12.80
2018-05-26T13:25:42.998Z,11.67
2018-05-26T13:28:10.492Z,10.40
2018-05-26T13:30:38.772Z,11.90
2018-05-26T13:33:07.035Z,12.93
2018-05-26T13:35:34.595Z,12.77
2018-05-26T13:38:02.858Z,12.30
2018-05-26T13:40:31.115Z,12.10
2018-05-26T13:42:58.608Z,12.50
2018-05-26T13:45:26.860Z,11.30
2018-05-26T13:47:54.373Z,13.80
2018-05-26T13:50:21.877Z,12.90
2018-05-26T13:52:50.171Z,11.67
2018-05-26T13:55:18.486Z,12.03
2018-05-26T13:57:46.727Z,11.67
2018-05-26T14:00:14.230Z,12.27
2018-05-26T14:02:41.750Z,12.10
2018-05-26T14:05:09.279Z,12.13
2018-05-26T14:07:37.123Z,11.53
2018-05-26T14:10:05.575Z,11.70
2018-05-26T14:12:33.846Z,12.13
2018-05-26T14:15:01.472Z,11.67
2018-05-26T14:17:29.289Z,14.00
2018-05-26T14:19:57.756Z,12.43
2018-05-26T14:22:26.728Z,11.53
2018-05-26T14:24:54.220Z,12.83
2018-05-26T14:27:21.719Z,11.77
2018-05-26T14:29:49.962Z,11.20
2018-05-26T14:32:17.475Z,11.53
2018-05-26T14:34:44.960Z,7.53
2018-05-26T14:37:12.455Z,5.90
2018-05-26T14:39:39.947Z,5.60
2018-05-26T14:42:07.439Z,5.80
2018-05-26T14:44:35.015Z,5.70
2018-05-26T14:47:02.493Z,5.70
2018-05-26T14:49:30.752Z,5.87
2018-05-26T14:51:58.236Z,5.80
2018-05-26T14:54:26.508Z,5.23
2018-05-26T14:56:54.078Z,6.00
2018-05-26T14:59:21.562Z,6.20
2018-05-26T15:01:49.036Z,6.17
2018-05-26T15:04:16.533Z,4.70
2018-05-26T15:06:44.786Z,5.50
2018-05-26T15:09:12.335Z,5.10
2018-05-26T15:11:39.835Z,4.93
2018-05-26T15:14:07.312Z,5.47
2018-05-26T15:16:34.803Z,4.80
2018-05-26T15:19:02.304Z,5.00
2018-05-26T15:21:30.569Z,5.30
2018-05-26T15:23:58.832Z,5.17
2018-05-26T15:26:26.321Z,5.87
2018-05-26T15:28:53.954Z,5.43
2018-05-26T15:31:22.212Z,5.43
2018-05-26T15:33:50.497Z,5.43
2018-05-26T15:36:18.772Z,5.60
2018-05-26T15:38:47.047Z,5.87
2018-05-26T15:41:14.567Z,5.83
2018-05-26T15:43:42.064Z,5.50
2018-05-26T15:46:10.353Z,5.90
2018-05-26T15:48:38.619Z,5.30
2018-05-26T15:51:06.102Z,6.00
2018-05-26T15:53:33.608Z,5.93
2018-05-26T15:56:01.242Z,6.27
2018-05-26T15:58:28.759Z,6.67
2018-05-26T16:00:57.023Z,5.43
2018-05-26T16:03:24.816Z,5.90
2018-05-26T16:05:52.308Z,5.50
2018-05-26T16:08:19.782Z,6.00
2018-05-26T16:10:47.275Z,5.80
2018-05-26T16:13:14.782Z,5.10
2018-05-26T16:15:42.919Z,5.90
2018-05-26T16:18:10.767Z,5.97
2018-05-26T16:20:39.002Z,5.93
2018-05-26T16:23:06.491Z,5.60
2018-05-26T16:25:34.812Z,4.90
2018-05-26T16:28:02.296Z,5.60
2018-05-26T16:30:29.776Z,5.63
2018-05-26T16:32:58.517Z,5.60
2018-05-26T16:35:25.978Z,5.77
2018-05-26T16:37:53.466Z,5.50
2018-05-26T16:40:22.070Z,5.40
2018-05-26T16:42:50.334Z,5.80
2018-05-26T16:45:18.625Z,5.37
2018-05-26T16:47:46.882Z,5.53
2018-05-26T16:50:15.135Z,5.77
2018-05-26T16:52:42.621Z,5.37
2018-05-26T16:55:10.146Z,5.90
2018-05-26T16:57:37.634Z,5.00
2018-05-26T17:00:06.614Z,5.47
2018-05-26T17:02:34.105Z,6.20
2018-05-26T17:05:01.626Z,5.30
2018-05-26T17:07:29.127Z,6.30
2018-05-26T17:09:56.627Z,5.87
2018-05-26T17:12:24.126Z,5.50
2018-05-26T17:14:51.606Z,5.93
2018-05-26T17:17:19.143Z,6.00
2018-05-26T17:19:46.645Z,5.00
2018-05-26T17:22:14.130Z,6.40
2018-05-26T17:24:41.631Z,6.17
2018-05-26T17:27:09.103Z,6.03
2018-05-26T17:29:36.600Z,6.13
2018-05-26T17:32:04.362Z,5.50
2018-05-26T17:34:31.850Z,5.77
2018-05-26T17:36:59.326Z,5.90
2018-05-26T17:39:26.832Z,6.37
2018-05-26T17:41:55.125Z,5.80
2018-05-26T17:44:23.386Z,5.13
2018-05-26T17:46:51.668Z,6.10
2018-05-26T17:49:23.706Z,6.23
2018-05-26T17:51:51.497Z,5.37
2018-05-26T17:54:19.819Z,6.67
2018-05-26T17:56:47.351Z,6.10
2018-05-26T17:59:14.826Z,5.20
2018-05-26T18:01:42.707Z,6.00
2018-05-26T18:04:10.186Z,6.03
2018-05-26T18:06:37.678Z,6.00
2018-05-26T18:09:05.924Z,6.20
2018-05-26T18:11:33.431Z,5.83
2018-05-26T18:14:00.921Z,5.67
2018-05-26T18:16:28.707Z,5.70
2018-05-26T18:18:56.970Z,6.07
2018-05-26T18:21:24.489Z,6.77
2018-05-26T18:23:51.968Z,7.20
2018-05-26T18:26:19.451Z,7.33
2018-05-26T18:28:47.731Z,6.63
2018-05-26T18:31:15.338Z,6.70
2018-05-26T18:33:42.811Z,6.67
2018-05-26T18:36:10.295Z,6.40
2018-05-26T18:38:37.774Z,6.47
2018-05-26T18:41:06.016Z,6.53
2018-05-26T18:43:33.501Z,7.07
2018-05-26T18:46:01.758Z,7.23
2018-05-26T18:48:30.754Z,7.23
2018-05-26T18:50:58.242Z,7.90
2018-05-26T18:53:25.742Z,7.20
2018-05-26T18:55:53.217Z,7.37
2018-05-26T18:58:20.999Z,6.60
2018-05-26T19:00:48.895Z,8.60
2018-05-26T19:03:16.795Z,8.30
2018-05-26T19:05:44.298Z,8.40
2018-05-26T19:08:12.630Z,8.40
2018-05-26T19:10:40.204Z,8.17
2018-05-26T19:13:07.986Z,8.00
2018-05-26T19:15:36.340Z,8.03
2018-05-26T19:18:03.833Z,8.03
2018-05-26T19:20:31.375Z,8.50
2018-05-26T19:22:58.867Z,8.53
2018-05-26T19:25:26.363Z,8.87
2018-05-26T19:27:54.054Z,8.47
2018-05-26T19:30:21.553Z,8.00
2018-05-26T19:32:49.071Z,8.23
2018-05-26T19:35:17.456Z,8.50
2018-05-26T19:37:45.344Z,8.73
2018-05-26T19:40:12.839Z,8.73
2018-05-26T19:42:40.531Z,9.17
2018-05-26T19:45:08.451Z,8.97
2018-05-26T19:47:35.973Z,8.50
2018-05-26T19:50:03.495Z,8.63
2018-05-26T19:52:30.971Z,9.27
2018-05-26T19:54:58.868Z,8.93
2018-05-26T19:57:26.369Z,9.20
2018-05-26T19:59:53.925Z,10.03
2018-05-26T20:02:21.406Z,10.30
2018-05-26T20:04:50.136Z,10.33
2018-05-26T20:07:17.695Z,10.97
2018-05-26T20:09:45.191Z,11.47
2018-05-26T20:12:13.094Z,11.17
2018-05-26T20:14:40.599Z,10.83
2018-05-26T20:17:08.106Z,11.07
2018-05-26T20:19:35.616Z,10.67
2018-05-26T20:22:03.137Z,11.57
2018-05-26T20:24:30.634Z,10.40
2018-05-26T20:26:58.139Z,11.37
2018-05-26T20:29:25.638Z,11.70
2018-05-26T20:31:53.931Z,11.60
2018-05-26T20:34:21.426Z,12.80
2018-05-26T20:36:48.927Z,11.10
2018-05-26T20:39:16.451Z,13.23
2018-05-26T20:41:43.963Z,11.57
2018-05-26T20:44:11.489Z,14.23
2018-05-26T20:46:38.980Z,13.30
2018-05-26T20:49:07.265Z,15.27
2018-05-26T20:51:34.751Z,15.00
2018-05-26T20:54:02.254Z,14.77
2018-05-26T20:56:29.772Z,14.40
2018-05-26T20:58:57.277Z,13.20
2018-05-26T21:01:24.818Z,13.20
2018-05-26T21:03:52.338Z,13.77
2018-05-26T21:06:19.827Z,13.93
2018-05-26T21:08:47.316Z,13.90
2018-05-26T21:11:15.597Z,14.20
2018-05-26T21:13:43.080Z,14.40
2018-05-26T21:16:11.336Z,14.53
2018-05-26T21:18:38.832Z,13.77
2018-05-26T21:21:06.371Z,14.10
2018-05-26T21:23:34.598Z,13.40
2018-05-26T21:26:02.416Z,14.93
2018-05-26T21:28:30.020Z,14.90
2018-05-26T21:30:57.550Z,14.40
2018-05-26T21:33:25.054Z,14.70
2018-05-26T21:35:52.895Z,13.53
2018-05-26T21:38:21.194Z,14.17
2018-05-26T21:40:49.069Z,15.93
2018-05-26T21:43:16.586Z,15.73
2018-05-26T21:45:44.066Z,15.40
2018-05-26T21:48:12.660Z,15.40
2018-05-26T21:50:40.276Z,14.67
2018-05-26T21:53:07.755Z,13.93
2018-05-26T21:55:35.765Z,14.47
2018-05-26T21:58:03.317Z,13.60
2018-05-26T22:00:31.151Z,13.87
2018-05-26T22:02:59.051Z,15.73
2018-05-26T22:05:26.941Z,14.90
2018-05-26T22:07:54.812Z,14.17
2018-05-26T22:10:23.478Z,14.20
2018-05-26T22:12:51.759Z,13.83
2018-05-26T22:15:19.250Z,12.80
2018-05-26T22:17:46.741Z,13.07
2018-05-26T22:20:14.627Z,12.97
2018-05-26T22:22:42.571Z,13.23
2018-05-26T22:25:10.781Z,13.03
2018-05-26T22:27:38.310Z,12.20
2018-05-26T22:30:06.186Z,11.70
2018-05-26T22:32:34.077Z,11.47
2018-05-26T22:35:02.010Z,11.43
2018-05-26T22:37:29.949Z,10.87
2018-05-26T22:39:57.542Z,10.30
2018-05-26T22:42:25.803Z,10.40
2018-05-26T22:44:53.683Z,10.47
2018-05-26T22:47:22.197Z,9.90
2018-05-26T22:49:49.688Z,10.07
2018-05-26T22:52:17.602Z,9.47
2018-05-26T22:54:45.487Z,9.90
2018-05-26T22:57:13.368Z,10.70
2018-05-26T22:59:41.252Z,10.30
2018-05-26T23:02:09.887Z,9.80
2018-05-26T23:04:37.376Z,9.67
2018-05-26T23:07:04.900Z,10.00
2018-05-26T23:09:32.792Z,9.77
2018-05-26T23:12:00.282Z,10.00
2018-05-26T23:14:27.792Z,10.07
2018-05-26T23:16:55.308Z,9.57
2018-05-26T23:19:22.799Z,9.43
2018-05-26T23:21:50.292Z,9.90
2018-05-26T23:24:17.813Z,9.30
2018-05-26T23:26:46.063Z,9.60
2018-05-26T23:29:14.326Z,10.00
2018-05-26T23:31:42.163Z,9.43
2018-05-26T23:34:09.646Z,9.60
2018-05-26T23:36:37.913Z,9.93
2018-05-26T23:39:05.410Z,9.33
2018-05-26T23:41:33.668Z,9.53
2018-05-26T23:44:01.923Z,9.27
2018-05-26T23:46:30.198Z,9.33
2018-05-26T23:48:58.490Z,9.13
2018-05-26T23:51:26.770Z,9.17
2018-05-26T23:53:54.287Z,8.80
2018-05-26T23:56:21.786Z,8.73
2018-05-26T23:58:50.041Z,9.90
